sensor_id;sensor_type;location;lat;lon;timestamp;temperature;humidity
58153;DHT22;43967;51.634;5.566;2024-01-16T00:01:00;18.10;48.80
58153;DHT22;43967;51.634;5.566;2024-01-16T00:06:21;18.10;48.70
58153;DHT22;43967;51.634;5.566;2024-01-16T00:11:43;18.10;48.60
58153;DHT22;43967;51.634;5.566;2024-01-16T00:17:05;18.10;48.60
58153;DHT22;43967;51.634;5.566;2024-01-16T00:22:30;18.00;48.50
58153;DHT22;43967;51.634;5.566;2024-01-16T00:27:52;18.10;48.60
58153;DHT22;43967;51.634;5.566;2024-01-16T00:33:13;18.00;48.50
58153;DHT22;43967;51.634;5.566;2024-01-16T00:38:34;18.00;48.50
58153;DHT22;43967;51.634;5.566;2024-01-16T00:43:56;18.00;48.40
58153;DHT22;43967;51.634;5.566;2024-01-16T00:49:17;18.00;48.40
58153;DHT22;43967;51.634;5.566;2024-01-16T00:54:38;17.90;48.30
58153;DHT22;43967;51.634;5.566;2024-01-16T01:00:00;17.90;48.20
58153;DHT22;43967;51.634;5.566;2024-01-16T01:05:21;17.90;48.20
58153;DHT22;43967;51.634;5.566;2024-01-16T01:10:42;17.90;48.20
58153;DHT22;43967;51.634;5.566;2024-01-16T01:16:04;17.90;48.20
58153;DHT22;43967;51.634;5.566;2024-01-16T01:21:25;17.90;48.20
58153;DHT22;43967;51.634;5.566;2024-01-16T01:26:46;17.90;48.20
58153;DHT22;43967;51.634;5.566;2024-01-16T01:32:07;17.90;48.20
58153;DHT22;43967;51.634;5.566;2024-01-16T01:37:32;17.90;48.10
58153;DHT22;43967;51.634;5.566;2024-01-16T01:42:53;17.80;48.00
58153;DHT22;43967;51.634;5.566;2024-01-16T01:48:14;17.80;48.00
58153;DHT22;43967;51.634;5.566;2024-01-16T01:53:36;17.80;48.00
58153;DHT22;43967;51.634;5.566;2024-01-16T01:59:00;17.80;48.00
58153;DHT22;43967;51.634;5.566;2024-01-16T02:04:22;17.80;48.00
58153;DHT22;43967;51.634;5.566;2024-01-16T02:09:44;17.80;48.00
58153;DHT22;43967;51.634;5.566;2024-01-16T02:15:05;17.80;47.90
58153;DHT22;43967;51.634;5.566;2024-01-16T02:20:26;17.80;47.90
58153;DHT22;43967;51.634;5.566;2024-01-16T02:25:47;17.80;47.90
58153;DHT22;43967;51.634;5.566;2024-01-16T02:31:09;17.80;47.80
58153;DHT22;43967;51.634;5.566;2024-01-16T02:36:30;17.80;47.90
58153;DHT22;43967;51.634;5.566;2024-01-16T02:41:52;17.70;47.70
58153;DHT22;43967;51.634;5.566;2024-01-16T02:47:13;17.80;47.80
58153;DHT22;43967;51.634;5.566;2024-01-16T02:52:34;17.70;47.70
58153;DHT22;43967;51.634;5.566;2024-01-16T02:57:55;17.70;47.70
58153;DHT22;43967;51.634;5.566;2024-01-16T03:03:17;17.70;47.70
58153;DHT22;43967;51.634;5.566;2024-01-16T03:08:38;17.70;47.70
58153;DHT22;43967;51.634;5.566;2024-01-16T03:13:59;17.70;47.70
58153;DHT22;43967;51.634;5.566;2024-01-16T03:19:20;17.70;47.70
58153;DHT22;43967;51.634;5.566;2024-01-16T03:24:42;17.70;47.60
58153;DHT22;43967;51.634;5.566;2024-01-16T03:30:03;17.70;47.60
58153;DHT22;43967;51.634;5.566;2024-01-16T03:35:25;17.60;47.60
58153;DHT22;43967;51.634;5.566;2024-01-16T03:40:46;17.60;47.60
58153;DHT22;43967;51.634;5.566;2024-01-16T03:46:10;17.60;47.60
58153;DHT22;43967;51.634;5.566;2024-01-16T03:51:32;17.60;47.60
58153;DHT22;43967;51.634;5.566;2024-01-16T03:56:53;17.60;47.50
58153;DHT22;43967;51.634;5.566;2024-01-16T04:02:15;17.60;47.50
58153;DHT22;43967;51.634;5.566;2024-01-16T04:07:36;17.60;47.50
58153;DHT22;43967;51.634;5.566;2024-01-16T04:13:00;17.60;47.50
58153;DHT22;43967;51.634;5.566;2024-01-16T04:18:22;17.60;47.40
58153;DHT22;43967;51.634;5.566;2024-01-16T04:23:43;17.60;47.40
58153;DHT22;43967;51.634;5.566;2024-01-16T04:29:04;17.60;47.40
58153;DHT22;43967;51.634;5.566;2024-01-16T04:34:26;17.60;47.40
58153;DHT22;43967;51.634;5.566;2024-01-16T04:39:47;17.50;47.40
58153;DHT22;43967;51.634;5.566;2024-01-16T04:45:08;17.50;47.30
58153;DHT22;43967;51.634;5.566;2024-01-16T04:50:31;17.60;47.30
58153;DHT22;43967;51.634;5.566;2024-01-16T04:55:52;17.60;47.20
58153;DHT22;43967;51.634;5.566;2024-01-16T05:01:13;17.60;47.10
58153;DHT22;43967;51.634;5.566;2024-01-16T05:06:35;17.60;47.10
58153;DHT22;43967;51.634;5.566;2024-01-16T05:11:57;17.60;47.10
58153;DHT22;43967;51.634;5.566;2024-01-16T05:17:18;17.60;47.10
58153;DHT22;43967;51.634;5.566;2024-01-16T05:22:39;17.60;47.10
58153;DHT22;43967;51.634;5.566;2024-01-16T05:28:03;17.60;47.10
58153;DHT22;43967;51.634;5.566;2024-01-16T05:33:24;17.60;47.20
58153;DHT22;43967;51.634;5.566;2024-01-16T05:38:45;17.50;47.10
58153;DHT22;43967;51.634;5.566;2024-01-16T05:44:06;17.60;47.10
58153;DHT22;43967;51.634;5.566;2024-01-16T05:49:28;17.50;47.20
58153;DHT22;43967;51.634;5.566;2024-01-16T05:54:49;17.50;47.20
58153;DHT22;43967;51.634;5.566;2024-01-16T06:00:11;17.50;47.20
58153;DHT22;43967;51.634;5.566;2024-01-16T06:05:32;17.50;47.20
58153;DHT22;43967;51.634;5.566;2024-01-16T06:10:53;17.50;47.20
58153;DHT22;43967;51.634;5.566;2024-01-16T06:16:15;17.50;47.20
58153;DHT22;43967;51.634;5.566;2024-01-16T06:21:36;17.50;47.20
58153;DHT22;43967;51.634;5.566;2024-01-16T06:26:57;17.50;47.20
58153;DHT22;43967;51.634;5.566;2024-01-16T06:32:18;17.40;47.10
58153;DHT22;43967;51.634;5.566;2024-01-16T06:37:40;17.40;46.90
58153;DHT22;43967;51.634;5.566;2024-01-16T06:43:01;17.40;46.80
58153;DHT22;43967;51.634;5.566;2024-01-16T06:48:22;17.40;46.70
58153;DHT22;43967;51.634;5.566;2024-01-16T06:53:43;17.40;46.60
58153;DHT22;43967;51.634;5.566;2024-01-16T06:59:05;17.30;46.60
58153;DHT22;43967;51.634;5.566;2024-01-16T07:04:26;17.30;46.30
58153;DHT22;43967;51.634;5.566;2024-01-16T07:09:47;17.30;46.30
58153;DHT22;43967;51.634;5.566;2024-01-16T07:15:09;17.30;46.20
58153;DHT22;43967;51.634;5.566;2024-01-16T07:20:30;17.30;46.60
58153;DHT22;43967;51.634;5.566;2024-01-16T07:25:51;17.40;45.80
58153;DHT22;43967;51.634;5.566;2024-01-16T07:31:12;17.40;45.80
58153;DHT22;43967;51.634;5.566;2024-01-16T07:36:34;17.40;45.80
58153;DHT22;43967;51.634;5.566;2024-01-16T07:41:55;17.40;45.90
58153;DHT22;43967;51.634;5.566;2024-01-16T07:47:16;17.40;46.00
58153;DHT22;43967;51.634;5.566;2024-01-16T07:52:37;17.40;46.00
58153;DHT22;43967;51.634;5.566;2024-01-16T07:57:59;17.40;46.00
58153;DHT22;43967;51.634;5.566;2024-01-16T08:03:20;17.40;46.00
58153;DHT22;43967;51.634;5.566;2024-01-16T08:08:41;17.40;46.00
58153;DHT22;43967;51.634;5.566;2024-01-16T08:14:02;17.40;46.00
58153;DHT22;43967;51.634;5.566;2024-01-16T08:19:24;17.40;46.00
58153;DHT22;43967;51.634;5.566;2024-01-16T08:24:46;17.40;46.00
58153;DHT22;43967;51.634;5.566;2024-01-16T08:30:07;17.40;46.00
58153;DHT22;43967;51.634;5.566;2024-01-16T08:35:29;17.40;46.00
58153;DHT22;43967;51.634;5.566;2024-01-16T08:40:50;17.40;46.10
58153;DHT22;43967;51.634;5.566;2024-01-16T08:46:11;17.40;46.00
58153;DHT22;43967;51.634;5.566;2024-01-16T08:51:33;17.40;46.00
58153;DHT22;43967;51.634;5.566;2024-01-16T08:56:54;17.40;46.00
58153;DHT22;43967;51.634;5.566;2024-01-16T09:02:15;17.40;46.00
58153;DHT22;43967;51.634;5.566;2024-01-16T09:07:36;17.30;46.00
58153;DHT22;43967;51.634;5.566;2024-01-16T09:12:58;17.40;46.00
58153;DHT22;43967;51.634;5.566;2024-01-16T09:18:19;17.30;46.00
58153;DHT22;43967;51.634;5.566;2024-01-16T09:23:40;17.30;46.70
58153;DHT22;43967;51.634;5.566;2024-01-16T09:29:01;17.40;46.00
58153;DHT22;43967;51.634;5.566;2024-01-16T09:34:23;17.30;46.00
58153;DHT22;43967;51.634;5.566;2024-01-16T09:39:44;17.30;46.00
58153;DHT22;43967;51.634;5.566;2024-01-16T09:45:06;17.30;46.00
58153;DHT22;43967;51.634;5.566;2024-01-16T09:50:27;17.30;46.00
58153;DHT22;43967;51.634;5.566;2024-01-16T09:55:51;17.30;46.00
58153;DHT22;43967;51.634;5.566;2024-01-16T10:01:16;17.30;46.00
58153;DHT22;43967;51.634;5.566;2024-01-16T10:06:38;17.30;46.00
58153;DHT22;43967;51.634;5.566;2024-01-16T10:12:00;17.30;46.00
58153;DHT22;43967;51.634;5.566;2024-01-16T10:17:21;17.30;46.00
58153;DHT22;43967;51.634;5.566;2024-01-16T10:22:52;17.30;46.00
58153;DHT22;43967;51.634;5.566;2024-01-16T10:28:20;17.30;46.00
58153;DHT22;43967;51.634;5.566;2024-01-16T10:33:41;17.30;46.00
58153;DHT22;43967;51.634;5.566;2024-01-16T10:39:03;17.20;46.10
58153;DHT22;43967;51.634;5.566;2024-01-16T10:44:24;17.20;46.20
58153;DHT22;43967;51.634;5.566;2024-01-16T10:49:48;17.20;46.30
58153;DHT22;43967;51.634;5.566;2024-01-16T10:55:09;17.20;46.30
58153;DHT22;43967;51.634;5.566;2024-01-16T11:00:33;17.20;46.30
58153;DHT22;43967;51.634;5.566;2024-01-16T11:05:58;17.30;46.40
58153;DHT22;43967;51.634;5.566;2024-01-16T11:11:20;17.30;46.40
58153;DHT22;43967;51.634;5.566;2024-01-16T11:16:43;17.20;46.40
58153;DHT22;43967;51.634;5.566;2024-01-16T11:22:09;17.30;46.50
58153;DHT22;43967;51.634;5.566;2024-01-16T11:27:31;17.30;47.20
58153;DHT22;43967;51.634;5.566;2024-01-16T11:32:52;17.30;46.50
58153;DHT22;43967;51.634;5.566;2024-01-16T11:38:17;17.30;46.40
58153;DHT22;43967;51.634;5.566;2024-01-16T11:43:38;17.30;46.40
58153;DHT22;43967;51.634;5.566;2024-01-16T11:49:04;17.30;46.40
58153;DHT22;43967;51.634;5.566;2024-01-16T11:54:28;17.30;46.30
58153;DHT22;43967;51.634;5.566;2024-01-16T12:00:00;17.30;46.30
58153;DHT22;43967;51.634;5.566;2024-01-16T12:05:21;17.30;46.30
58153;DHT22;43967;51.634;5.566;2024-01-16T12:10:46;17.30;46.20
58153;DHT22;43967;51.634;5.566;2024-01-16T12:16:07;17.30;46.20
58153;DHT22;43967;51.634;5.566;2024-01-16T12:21:30;17.30;46.10
58153;DHT22;43967;51.634;5.566;2024-01-16T12:26:57;17.30;46.00
58153;DHT22;43967;51.634;5.566;2024-01-16T12:32:19;17.20;46.00
58153;DHT22;43967;51.634;5.566;2024-01-16T12:37:41;17.30;46.10
58153;DHT22;43967;51.634;5.566;2024-01-16T12:43:05;17.20;46.00
58153;DHT22;43967;51.634;5.566;2024-01-16T12:48:27;17.30;46.10
58153;DHT22;43967;51.634;5.566;2024-01-16T12:53:48;17.20;46.00
58153;DHT22;43967;51.634;5.566;2024-01-16T12:59:13;17.20;46.00
58153;DHT22;43967;51.634;5.566;2024-01-16T13:04:36;17.20;46.00
58153;DHT22;43967;51.634;5.566;2024-01-16T13:10:08;17.20;46.10
58153;DHT22;43967;51.634;5.566;2024-01-16T13:15:30;17.20;46.10
58153;DHT22;43967;51.634;5.566;2024-01-16T13:20:53;17.20;46.20
58153;DHT22;43967;51.634;5.566;2024-01-16T13:26:14;17.20;46.20
58153;DHT22;43967;51.634;5.566;2024-01-16T13:31:35;17.20;46.20
58153;DHT22;43967;51.634;5.566;2024-01-16T13:36:58;17.20;46.90
58153;DHT22;43967;51.634;5.566;2024-01-16T13:42:23;17.20;46.30
58153;DHT22;43967;51.634;5.566;2024-01-16T13:47:44;17.20;46.20
58153;DHT22;43967;51.634;5.566;2024-01-16T13:53:05;17.20;46.00
58153;DHT22;43967;51.634;5.566;2024-01-16T13:58:28;17.20;46.00
58153;DHT22;43967;51.634;5.566;2024-01-16T14:03:49;17.20;45.80
58153;DHT22;43967;51.634;5.566;2024-01-16T14:09:10;17.20;45.80
58153;DHT22;43967;51.634;5.566;2024-01-16T14:14:32;17.20;45.70
58153;DHT22;43967;51.634;5.566;2024-01-16T14:19:53;17.20;45.70
58153;DHT22;43967;51.634;5.566;2024-01-16T14:25:14;17.20;45.70
58153;DHT22;43967;51.634;5.566;2024-01-16T14:30:37;17.20;45.70
58153;DHT22;43967;51.634;5.566;2024-01-16T14:35:58;17.20;45.60
58153;DHT22;43967;51.634;5.566;2024-01-16T14:41:19;17.20;45.60
58153;DHT22;43967;51.634;5.566;2024-01-16T14:46:41;17.10;45.50
58153;DHT22;43967;51.634;5.566;2024-01-16T14:52:02;17.10;46.10
58153;DHT22;43967;51.634;5.566;2024-01-16T14:57:23;17.20;47.90
58153;DHT22;43967;51.634;5.566;2024-01-16T15:02:54;17.20;49.40
58153;DHT22;43967;51.634;5.566;2024-01-16T15:08:15;17.20;50.20
58153;DHT22;43967;51.634;5.566;2024-01-16T15:13:36;17.20;50.40
58153;DHT22;43967;51.634;5.566;2024-01-16T15:18:58;17.20;50.50
58153;DHT22;43967;51.634;5.566;2024-01-16T15:24:19;17.20;50.70
58153;DHT22;43967;51.634;5.566;2024-01-16T15:29:40;17.30;50.80
58153;DHT22;43967;51.634;5.566;2024-01-16T15:35:02;17.30;51.40
58153;DHT22;43967;51.634;5.566;2024-01-16T15:40:23;17.30;51.70
58153;DHT22;43967;51.634;5.566;2024-01-16T15:45:44;17.30;51.90
58153;DHT22;43967;51.634;5.566;2024-01-16T15:51:06;17.30;52.50
58153;DHT22;43967;51.634;5.566;2024-01-16T15:56:27;17.40;52.70
58153;DHT22;43967;51.634;5.566;2024-01-16T16:01:48;17.40;53.00
58153;DHT22;43967;51.634;5.566;2024-01-16T16:07:10;17.40;53.00
58153;DHT22;43967;51.634;5.566;2024-01-16T16:12:31;17.40;53.10
58153;DHT22;43967;51.634;5.566;2024-01-16T16:17:52;17.50;54.00
58153;DHT22;43967;51.634;5.566;2024-01-16T16:23:13;17.50;53.10
58153;DHT22;43967;51.634;5.566;2024-01-16T16:28:35;17.50;53.40
58153;DHT22;43967;51.634;5.566;2024-01-16T16:34:00;17.60;53.80
58153;DHT22;43967;51.634;5.566;2024-01-16T17:22:19;17.40;52.50
58153;DHT22;43967;51.634;5.566;2024-01-16T17:27:40;17.60;53.00
58153;DHT22;43967;51.634;5.566;2024-01-16T17:33:01;17.50;52.60
58153;DHT22;43967;51.634;5.566;2024-01-16T17:38:22;17.50;52.30
58153;DHT22;43967;51.634;5.566;2024-01-16T17:43:44;17.50;52.00
58153;DHT22;43967;51.634;5.566;2024-01-16T17:49:07;17.50;51.90
58153;DHT22;43967;51.634;5.566;2024-01-16T17:54:28;17.50;51.70
58153;DHT22;43967;51.634;5.566;2024-01-16T17:59:49;17.50;51.60
58153;DHT22;43967;51.634;5.566;2024-01-16T18:05:11;17.50;51.40
58153;DHT22;43967;51.634;5.566;2024-01-16T18:10:32;17.40;51.30
58153;DHT22;43967;51.634;5.566;2024-01-16T18:15:53;17.50;51.10
58153;DHT22;43967;51.634;5.566;2024-01-16T18:21:14;17.40;50.80
58153;DHT22;43967;51.634;5.566;2024-01-16T18:26:36;17.40;50.70
58153;DHT22;43967;51.634;5.566;2024-01-16T18:31:57;17.40;50.60
58153;DHT22;43967;51.634;5.566;2024-01-16T18:37:19;17.50;50.50
58153;DHT22;43967;51.634;5.566;2024-01-16T18:42:40;17.40;50.20
58153;DHT22;43967;51.634;5.566;2024-01-16T18:48:03;17.40;49.40
58153;DHT22;43967;51.634;5.566;2024-01-16T18:53:24;17.40;50.20
58153;DHT22;43967;51.634;5.566;2024-01-16T18:58:46;17.40;50.40
58153;DHT22;43967;51.634;5.566;2024-01-16T19:04:07;17.40;50.70
58153;DHT22;43967;51.634;5.566;2024-01-16T19:09:28;17.40;50.80
58153;DHT22;43967;51.634;5.566;2024-01-16T19:14:49;17.40;51.10
58153;DHT22;43967;51.634;5.566;2024-01-16T19:20:11;17.40;51.40
58153;DHT22;43967;51.634;5.566;2024-01-16T19:25:33;17.40;52.20
58153;DHT22;43967;51.634;5.566;2024-01-16T19:30:54;17.40;52.00
58153;DHT22;43967;51.634;5.566;2024-01-16T19:36:15;17.40;52.90
58153;DHT22;43967;51.634;5.566;2024-01-16T19:41:36;17.50;53.00
58153;DHT22;43967;51.634;5.566;2024-01-16T19:46:59;17.50;52.90
58153;DHT22;43967;51.634;5.566;2024-01-16T19:52:20;17.50;52.80
58153;DHT22;43967;51.634;5.566;2024-01-16T19:57:41;17.50;52.70
58153;DHT22;43967;51.634;5.566;2024-01-16T20:03:03;17.50;52.60
58153;DHT22;43967;51.634;5.566;2024-01-16T20:08:24;17.50;52.40
58153;DHT22;43967;51.634;5.566;2024-01-16T20:13:46;17.50;52.40
58153;DHT22;43967;51.634;5.566;2024-01-16T20:19:07;17.50;52.20
58153;DHT22;43967;51.634;5.566;2024-01-16T20:24:28;17.50;52.60
58153;DHT22;43967;51.634;5.566;2024-01-16T20:29:50;17.50;53.50
58153;DHT22;43967;51.634;5.566;2024-01-16T20:35:12;17.50;53.90
58153;DHT22;43967;51.634;5.566;2024-01-16T20:40:33;17.50;54.00
58153;DHT22;43967;51.634;5.566;2024-01-16T20:45:54;17.50;54.10
58153;DHT22;43967;51.634;5.566;2024-01-16T20:51:16;17.50;54.10
58153;DHT22;43967;51.634;5.566;2024-01-16T20:56:40;17.50;54.10
58153;DHT22;43967;51.634;5.566;2024-01-16T21:02:01;17.50;53.90
58153;DHT22;43967;51.634;5.566;2024-01-16T21:07:23;17.50;53.80
58153;DHT22;43967;51.634;5.566;2024-01-16T21:12:44;17.60;53.40
58153;DHT22;43967;51.634;5.566;2024-01-16T21:18:05;17.60;53.00
58153;DHT22;43967;51.634;5.566;2024-01-16T21:23:27;17.70;52.80
58153;DHT22;43967;51.634;5.566;2024-01-16T21:28:48;17.60;52.60
58153;DHT22;43967;51.634;5.566;2024-01-16T21:34:10;17.70;52.60
58153;DHT22;43967;51.634;5.566;2024-01-16T21:39:32;17.70;52.50
58153;DHT22;43967;51.634;5.566;2024-01-16T21:44:53;17.60;52.40
58153;DHT22;43967;51.634;5.566;2024-01-16T21:50:14;17.70;52.40
58153;DHT22;43967;51.634;5.566;2024-01-16T21:55:36;17.70;52.30
58153;DHT22;43967;51.634;5.566;2024-01-16T22:00:59;17.70;52.30
58153;DHT22;43967;51.634;5.566;2024-01-16T22:06:20;17.70;52.90
58153;DHT22;43967;51.634;5.566;2024-01-16T22:11:41;17.70;52.00
58153;DHT22;43967;51.634;5.566;2024-01-16T22:17:03;17.70;51.70
58153;DHT22;43967;51.634;5.566;2024-01-16T22:22:24;17.60;51.20
58153;DHT22;43967;51.634;5.566;2024-01-16T22:27:45;17.60;50.90
58153;DHT22;43967;51.634;5.566;2024-01-16T22:33:07;17.60;50.70
58153;DHT22;43967;51.634;5.566;2024-01-16T22:38:28;17.60;50.50
58153;DHT22;43967;51.634;5.566;2024-01-16T22:43:49;17.60;50.40
58153;DHT22;43967;51.634;5.566;2024-01-16T22:49:12;17.50;50.10
58153;DHT22;43967;51.634;5.566;2024-01-16T22:54:33;17.50;50.00
58153;DHT22;43967;51.634;5.566;2024-01-16T22:59:54;17.50;49.90
58153;DHT22;43967;51.634;5.566;2024-01-16T23:05:18;17.50;49.80
58153;DHT22;43967;51.634;5.566;2024-01-16T23:10:40;17.50;49.70
58153;DHT22;43967;51.634;5.566;2024-01-16T23:16:01;17.50;49.50
58153;DHT22;43967;51.634;5.566;2024-01-16T23:21:22;17.40;49.30
58153;DHT22;43967;51.634;5.566;2024-01-16T23:26:44;17.40;49.20
58153;DHT22;43967;51.634;5.566;2024-01-16T23:32:05;17.40;49.10
58153;DHT22;43967;51.634;5.566;2024-01-16T23:37:26;17.40;49.00
58153;DHT22;43967;51.634;5.566;2024-01-16T23:42:48;17.40;48.80
58153;DHT22;43967;51.634;5.566;2024-01-16T23:48:09;17.40;48.70
58153;DHT22;43967;51.634;5.566;2024-01-16T23:53:30;17.40;48.70
58153;DHT22;43967;51.634;5.566;2024-01-16T23:58:51;17.30;48.50
